sensor_id;sensor_type;location;lat;lon;timestamp;P1;durP1;ratioP1;P2;durP2;ratioP2
67500;SDS011;54349;52.528;19.760;2022-11-15T00:00:27;14.00;;;9.80;;
67500;SDS011;54349;52.528;19.760;2022-11-15T00:03:15;14.80;;;9.90;;
67500;SDS011;54349;52.528;19.760;2022-11-15T00:06:13;14.90;;;9.40;;
67500;SDS011;54349;52.528;19.760;2022-11-15T00:09:00;15.70;;;10.20;;
67500;SDS011;54349;52.528;19.760;2022-11-15T00:11:47;14.00;;;9.40;;
67500;SDS011;54349;52.528;19.760;2022-11-15T00:14:34;15.10;;;10.00;;
67500;SDS011;54349;52.528;19.760;2022-11-15T00:17:21;14.20;;;9.40;;
67500;SDS011;54349;52.528;19.760;2022-11-15T00:20:09;13.60;;;9.30;;
67500;SDS011;54349;52.528;19.760;2022-11-15T00:22:56;15.40;;;9.70;;
67500;SDS011;54349;52.528;19.760;2022-11-15T00:25:43;15.90;;;10.10;;
67500;SDS011;54349;52.528;19.760;2022-11-15T00:28:30;14.60;;;9.90;;
67500;SDS011;54349;52.528;19.760;2022-11-15T00:31:18;15.30;;;9.90;;
67500;SDS011;54349;52.528;19.760;2022-11-15T00:34:04;15.10;;;8.50;;
67500;SDS011;54349;52.528;19.760;2022-11-15T00:36:51;14.70;;;10.10;;
67500;SDS011;54349;52.528;19.760;2022-11-15T00:39:38;15.70;;;9.90;;
67500;SDS011;54349;52.528;19.760;2022-11-15T00:42:25;14.60;;;10.20;;
67500;SDS011;54349;52.528;19.760;2022-11-15T00:45:12;14.80;;;9.70;;
67500;SDS011;54349;52.528;19.760;2022-11-15T00:47:59;16.20;;;10.00;;
67500;SDS011;54349;52.528;19.760;2022-11-15T00:50:46;14.90;;;9.90;;
67500;SDS011;54349;52.528;19.760;2022-11-15T00:53:33;15.10;;;10.20;;
67500;SDS011;54349;52.528;19.760;2022-11-15T00:56:20;15.90;;;11.00;;
67500;SDS011;54349;52.528;19.760;2022-11-15T00:59:07;15.80;;;10.50;;
67500;SDS011;54349;52.528;19.760;2022-11-15T01:01:54;14.90;;;10.40;;
67500;SDS011;54349;52.528;19.760;2022-11-15T01:04:41;13.80;;;10.10;;
67500;SDS011;54349;52.528;19.760;2022-11-15T01:07:28;16.00;;;10.40;;
67500;SDS011;54349;52.528;19.760;2022-11-15T01:10:15;16.10;;;11.40;;
67500;SDS011;54349;52.528;19.760;2022-11-15T01:13:02;16.90;;;10.30;;
67500;SDS011;54349;52.528;19.760;2022-11-15T01:15:49;16.10;;;10.90;;
67500;SDS011;54349;52.528;19.760;2022-11-15T01:18:36;17.10;;;11.60;;
67500;SDS011;54349;52.528;19.760;2022-11-15T01:21:24;17.70;;;11.10;;
67500;SDS011;54349;52.528;19.760;2022-11-15T01:24:14;16.80;;;11.60;;
67500;SDS011;54349;52.528;19.760;2022-11-15T01:27:01;16.10;;;11.30;;
67500;SDS011;54349;52.528;19.760;2022-11-15T01:29:48;17.60;;;11.90;;
67500;SDS011;54349;52.528;19.760;2022-11-15T01:32:34;17.90;;;11.80;;
67500;SDS011;54349;52.528;19.760;2022-11-15T01:35:22;20.30;;;13.30;;
67500;SDS011;54349;52.528;19.760;2022-11-15T01:38:08;19.40;;;12.50;;
67500;SDS011;54349;52.528;19.760;2022-11-15T01:40:55;19.60;;;12.80;;
67500;SDS011;54349;52.528;19.760;2022-11-15T01:43:42;19.00;;;12.70;;
67500;SDS011;54349;52.528;19.760;2022-11-15T01:46:37;20.60;;;13.30;;
67500;SDS011;54349;52.528;19.760;2022-11-15T01:52:17;19.10;;;12.70;;
67500;SDS011;54349;52.528;19.760;2022-11-15T01:55:08;20.30;;;12.80;;
67500;SDS011;54349;52.528;19.760;2022-11-15T01:58:02;20.50;;;13.90;;
67500;SDS011;54349;52.528;19.760;2022-11-15T02:00:51;20.10;;;13.60;;
67500;SDS011;54349;52.528;19.760;2022-11-15T02:03:48;20.30;;;14.10;;
67500;SDS011;54349;52.528;19.760;2022-11-15T02:06:48;19.40;;;13.30;;
67500;SDS011;54349;52.528;19.760;2022-11-15T02:09:37;21.00;;;14.10;;
67500;SDS011;54349;52.528;19.760;2022-11-15T02:12:25;20.50;;;13.60;;
67500;SDS011;54349;52.528;19.760;2022-11-15T02:15:12;20.90;;;13.90;;
67500;SDS011;54349;52.528;19.760;2022-11-15T02:18:24;22.30;;;13.90;;
67500;SDS011;54349;52.528;19.760;2022-11-15T02:21:49;23.30;;;15.20;;
67500;SDS011;54349;52.528;19.760;2022-11-15T02:31:51;22.60;;;14.40;;
67500;SDS011;54349;52.528;19.760;2022-11-15T02:38:07;23.90;;;14.30;;
67500;SDS011;54349;52.528;19.760;2022-11-15T02:41:07;22.50;;;14.80;;
67500;SDS011;54349;52.528;19.760;2022-11-15T02:44:06;23.20;;;14.60;;
67500;SDS011;54349;52.528;19.760;2022-11-15T02:47:02;21.20;;;13.80;;
67500;SDS011;54349;52.528;19.760;2022-11-15T02:50:11;22.20;;;14.90;;
67500;SDS011;54349;52.528;19.760;2022-11-15T02:53:00;22.20;;;14.50;;
67500;SDS011;54349;52.528;19.760;2022-11-15T02:55:50;20.80;;;13.60;;
67500;SDS011;54349;52.528;19.760;2022-11-15T03:08:40;24.50;;;15.60;;
67500;SDS011;54349;52.528;19.760;2022-11-15T03:11:47;24.90;;;15.50;;
67500;SDS011;54349;52.528;19.760;2022-11-15T03:15:00;26.00;;;15.50;;
67500;SDS011;54349;52.528;19.760;2022-11-15T03:17:58;25.20;;;16.00;;
67500;SDS011;54349;52.528;19.760;2022-11-15T03:20:49;23.40;;;14.80;;
67500;SDS011;54349;52.528;19.760;2022-11-15T03:23:38;26.30;;;16.40;;
67500;SDS011;54349;52.528;19.760;2022-11-15T03:26:28;27.00;;;16.40;;
67500;SDS011;54349;52.528;19.760;2022-11-15T03:29:22;27.20;;;16.40;;
67500;SDS011;54349;52.528;19.760;2022-11-15T03:32:22;26.90;;;15.80;;
67500;SDS011;54349;52.528;19.760;2022-11-15T03:35:24;26.40;;;16.00;;
67500;SDS011;54349;52.528;19.760;2022-11-15T03:38:25;25.50;;;15.30;;
67500;SDS011;54349;52.528;19.760;2022-11-15T03:41:35;24.40;;;15.60;;
67500;SDS011;54349;52.528;19.760;2022-11-15T03:44:53;24.60;;;16.10;;
67500;SDS011;54349;52.528;19.760;2022-11-15T03:47:58;25.60;;;15.70;;
67500;SDS011;54349;52.528;19.760;2022-11-15T03:50:59;27.50;;;16.00;;
67500;SDS011;54349;52.528;19.760;2022-11-15T03:53:47;27.50;;;15.60;;
67500;SDS011;54349;52.528;19.760;2022-11-15T03:56:34;26.20;;;16.10;;
67500;SDS011;54349;52.528;19.760;2022-11-15T03:59:20;26.80;;;15.70;;
67500;SDS011;54349;52.528;19.760;2022-11-15T04:02:07;23.70;;;15.00;;
67500;SDS011;54349;52.528;19.760;2022-11-15T04:04:54;24.50;;;15.60;;
67500;SDS011;54349;52.528;19.760;2022-11-15T04:07:41;27.30;;;16.10;;
67500;SDS011;54349;52.528;19.760;2022-11-15T04:10:29;27.10;;;16.10;;
67500;SDS011;54349;52.528;19.760;2022-11-15T04:13:16;28.30;;;15.40;;
67500;SDS011;54349;52.528;19.760;2022-11-15T04:16:02;25.30;;;15.40;;
67500;SDS011;54349;52.528;19.760;2022-11-15T04:18:49;26.10;;;15.90;;
67500;SDS011;54349;52.528;19.760;2022-11-15T04:21:56;26.10;;;15.50;;
67500;SDS011;54349;52.528;19.760;2022-11-15T04:25:02;25.10;;;14.80;;
67500;SDS011;54349;52.528;19.760;2022-11-15T04:27:49;27.90;;;15.30;;
67500;SDS011;54349;52.528;19.760;2022-11-15T04:30:36;27.40;;;16.80;;
67500;SDS011;54349;52.528;19.760;2022-11-15T04:33:24;24.90;;;15.40;;
67500;SDS011;54349;52.528;19.760;2022-11-15T04:36:10;26.40;;;14.50;;
67500;SDS011;54349;52.528;19.760;2022-11-15T04:39:17;28.30;;;16.00;;
67500;SDS011;54349;52.528;19.760;2022-11-15T04:42:04;25.10;;;14.40;;
67500;SDS011;54349;52.528;19.760;2022-11-15T04:44:50;23.30;;;15.10;;
67500;SDS011;54349;52.528;19.760;2022-11-15T04:47:37;24.90;;;14.80;;
67500;SDS011;54349;52.528;19.760;2022-11-15T04:50:24;27.10;;;15.70;;
67500;SDS011;54349;52.528;19.760;2022-11-15T04:53:11;25.80;;;14.80;;
67500;SDS011;54349;52.528;19.760;2022-11-15T04:55:58;26.90;;;15.70;;
67500;SDS011;54349;52.528;19.760;2022-11-15T04:58:45;25.40;;;15.60;;
67500;SDS011;54349;52.528;19.760;2022-11-15T05:01:31;24.20;;;14.10;;
67500;SDS011;54349;52.528;19.760;2022-11-15T05:04:18;24.50;;;15.10;;
67500;SDS011;54349;52.528;19.760;2022-11-15T05:07:05;23.70;;;14.20;;
67500;SDS011;54349;52.528;19.760;2022-11-15T05:09:53;25.50;;;14.90;;
67500;SDS011;54349;52.528;19.760;2022-11-15T05:12:39;24.20;;;14.40;;
67500;SDS011;54349;52.528;19.760;2022-11-15T05:15:26;25.70;;;14.40;;
67500;SDS011;54349;52.528;19.760;2022-11-15T05:18:13;24.70;;;15.30;;
67500;SDS011;54349;52.528;19.760;2022-11-15T05:21:08;25.90;;;14.70;;
67500;SDS011;54349;52.528;19.760;2022-11-15T05:23:56;24.40;;;15.00;;
67500;SDS011;54349;52.528;19.760;2022-11-15T05:26:44;25.10;;;14.90;;
67500;SDS011;54349;52.528;19.760;2022-11-15T05:29:30;27.10;;;15.60;;
67500;SDS011;54349;52.528;19.760;2022-11-15T05:32:17;27.30;;;15.70;;
67500;SDS011;54349;52.528;19.760;2022-11-15T05:35:07;24.90;;;14.10;;
67500;SDS011;54349;52.528;19.760;2022-11-15T05:37:58;26.50;;;14.50;;
67500;SDS011;54349;52.528;19.760;2022-11-15T05:40:45;24.40;;;14.40;;
67500;SDS011;54349;52.528;19.760;2022-11-15T05:43:35;26.60;;;14.80;;
67500;SDS011;54349;52.528;19.760;2022-11-15T05:46:24;26.60;;;15.20;;
67500;SDS011;54349;52.528;19.760;2022-11-15T05:49:13;23.10;;;13.50;;
67500;SDS011;54349;52.528;19.760;2022-11-15T05:52:07;26.80;;;14.90;;
67500;SDS011;54349;52.528;19.760;2022-11-15T05:54:58;27.70;;;14.60;;
67500;SDS011;54349;52.528;19.760;2022-11-15T05:57:45;26.90;;;15.00;;
67500;SDS011;54349;52.528;19.760;2022-11-15T06:00:32;28.80;;;15.70;;
67500;SDS011;54349;52.528;19.760;2022-11-15T06:03:20;26.30;;;14.90;;
67500;SDS011;54349;52.528;19.760;2022-11-15T06:06:07;27.80;;;14.50;;
67500;SDS011;54349;52.528;19.760;2022-11-15T06:09:02;24.10;;;13.30;;
67500;SDS011;54349;52.528;19.760;2022-11-15T06:11:48;23.70;;;13.00;;
67500;SDS011;54349;52.528;19.760;2022-11-15T06:14:35;22.00;;;12.80;;
67500;SDS011;54349;52.528;19.760;2022-11-15T06:17:22;25.00;;;13.10;;
67500;SDS011;54349;52.528;19.760;2022-11-15T06:20:09;22.70;;;13.00;;
67500;SDS011;54349;52.528;19.760;2022-11-15T06:23:02;21.10;;;12.80;;
67500;SDS011;54349;52.528;19.760;2022-11-15T06:25:51;21.90;;;12.90;;
67500;SDS011;54349;52.528;19.760;2022-11-15T06:28:37;21.40;;;12.20;;
67500;SDS011;54349;52.528;19.760;2022-11-15T06:31:24;20.60;;;12.10;;
67500;SDS011;54349;52.528;19.760;2022-11-15T06:34:11;21.60;;;12.40;;
67500;SDS011;54349;52.528;19.760;2022-11-15T06:36:58;21.20;;;11.60;;
67500;SDS011;54349;52.528;19.760;2022-11-15T06:39:45;18.50;;;11.00;;
67500;SDS011;54349;52.528;19.760;2022-11-15T06:42:32;20.00;;;12.40;;
67500;SDS011;54349;52.528;19.760;2022-11-15T06:45:19;20.40;;;11.60;;
67500;SDS011;54349;52.528;19.760;2022-11-15T06:48:06;20.60;;;11.80;;
67500;SDS011;54349;52.528;19.760;2022-11-15T06:50:57;18.70;;;11.80;;
67500;SDS011;54349;52.528;19.760;2022-11-15T06:53:45;18.00;;;11.00;;
67500;SDS011;54349;52.528;19.760;2022-11-15T06:56:34;19.80;;;11.80;;
67500;SDS011;54349;52.528;19.760;2022-11-15T06:59:20;18.70;;;11.50;;
67500;SDS011;54349;52.528;19.760;2022-11-15T07:02:12;19.90;;;11.60;;
67500;SDS011;54349;52.528;19.760;2022-11-15T07:05:00;20.00;;;11.60;;
67500;SDS011;54349;52.528;19.760;2022-11-15T07:07:54;19.10;;;11.30;;
67500;SDS011;54349;52.528;19.760;2022-11-15T07:10:42;19.60;;;11.10;;
67500;SDS011;54349;52.528;19.760;2022-11-15T07:13:31;20.00;;;11.20;;
67500;SDS011;54349;52.528;19.760;2022-11-15T07:16:22;18.20;;;11.40;;
67500;SDS011;54349;52.528;19.760;2022-11-15T07:19:09;19.70;;;11.20;;
67500;SDS011;54349;52.528;19.760;2022-11-15T07:21:56;18.50;;;11.20;;
67500;SDS011;54349;52.528;19.760;2022-11-15T07:24:44;18.00;;;10.80;;
67500;SDS011;54349;52.528;19.760;2022-11-15T07:27:31;17.60;;;10.90;;
67500;SDS011;54349;52.528;19.760;2022-11-15T07:30:18;18.30;;;10.50;;
67500;SDS011;54349;52.528;19.760;2022-11-15T07:33:05;18.10;;;10.90;;
67500;SDS011;54349;52.528;19.760;2022-11-15T07:35:52;18.00;;;11.30;;
67500;SDS011;54349;52.528;19.760;2022-11-15T07:38:39;18.10;;;10.50;;
67500;SDS011;54349;52.528;19.760;2022-11-15T07:41:29;18.10;;;10.40;;
67500;SDS011;54349;52.528;19.760;2022-11-15T07:44:16;15.70;;;10.10;;
67500;SDS011;54349;52.528;19.760;2022-11-15T07:47:03;15.40;;;10.10;;
67500;SDS011;54349;52.528;19.760;2022-11-15T07:49:51;16.30;;;10.10;;
67500;SDS011;54349;52.528;19.760;2022-11-15T07:52:38;19.00;;;10.40;;
67500;SDS011;54349;52.528;19.760;2022-11-15T07:55:27;19.70;;;10.50;;
67500;SDS011;54349;52.528;19.760;2022-11-15T07:58:15;17.80;;;10.60;;
67500;SDS011;54349;52.528;19.760;2022-11-15T08:01:06;15.70;;;10.20;;
67500;SDS011;54349;52.528;19.760;2022-11-15T08:03:55;16.50;;;10.30;;
67500;SDS011;54349;52.528;19.760;2022-11-15T08:06:42;17.70;;;10.40;;
67500;SDS011;54349;52.528;19.760;2022-11-15T08:09:29;17.60;;;10.80;;
67500;SDS011;54349;52.528;19.760;2022-11-15T08:12:16;17.80;;;10.30;;
67500;SDS011;54349;52.528;19.760;2022-11-15T08:15:03;15.60;;;9.60;;
67500;SDS011;54349;52.528;19.760;2022-11-15T08:17:58;15.50;;;9.90;;
67500;SDS011;54349;52.528;19.760;2022-11-15T08:20:47;16.00;;;9.90;;
67500;SDS011;54349;52.528;19.760;2022-11-15T08:23:33;16.90;;;9.90;;
67500;SDS011;54349;52.528;19.760;2022-11-15T08:26:20;16.10;;;10.00;;
67500;SDS011;54349;52.528;19.760;2022-11-15T08:29:08;15.90;;;10.30;;
67500;SDS011;54349;52.528;19.760;2022-11-15T08:31:55;15.80;;;9.70;;
67500;SDS011;54349;52.528;19.760;2022-11-15T08:34:42;16.60;;;10.00;;
67500;SDS011;54349;52.528;19.760;2022-11-15T08:37:29;15.70;;;9.50;;
67500;SDS011;54349;52.528;19.760;2022-11-15T08:40:16;16.00;;;10.20;;
67500;SDS011;54349;52.528;19.760;2022-11-15T08:43:04;16.40;;;10.20;;
67500;SDS011;54349;52.528;19.760;2022-11-15T08:45:55;16.30;;;9.80;;
67500;SDS011;54349;52.528;19.760;2022-11-15T08:48:42;15.70;;;9.80;;
67500;SDS011;54349;52.528;19.760;2022-11-15T08:51:30;16.90;;;10.20;;
67500;SDS011;54349;52.528;19.760;2022-11-15T08:54:17;15.80;;;10.20;;
67500;SDS011;54349;52.528;19.760;2022-11-15T08:57:04;15.30;;;9.70;;
67500;SDS011;54349;52.528;19.760;2022-11-15T08:59:51;17.00;;;9.30;;
67500;SDS011;54349;52.528;19.760;2022-11-15T09:02:39;16.50;;;10.40;;
67500;SDS011;54349;52.528;19.760;2022-11-15T09:05:26;17.20;;;10.20;;
67500;SDS011;54349;52.528;19.760;2022-11-15T09:08:12;15.40;;;9.50;;
67500;SDS011;54349;52.528;19.760;2022-11-15T09:11:19;15.90;;;10.10;;
67500;SDS011;54349;52.528;19.760;2022-11-15T09:14:11;16.00;;;9.50;;
67500;SDS011;54349;52.528;19.760;2022-11-15T09:16:59;15.30;;;9.60;;
67500;SDS011;54349;52.528;19.760;2022-11-15T09:19:46;15.40;;;9.70;;
67500;SDS011;54349;52.528;19.760;2022-11-15T09:22:33;13.40;;;9.10;;
67500;SDS011;54349;52.528;19.760;2022-11-15T09:25:20;15.10;;;9.50;;
67500;SDS011;54349;52.528;19.760;2022-11-15T09:28:07;17.50;;;10.50;;
67500;SDS011;54349;52.528;19.760;2022-11-15T09:31:03;16.50;;;9.80;;
67500;SDS011;54349;52.528;19.760;2022-11-15T09:33:51;16.90;;;10.30;;
67500;SDS011;54349;52.528;19.760;2022-11-15T09:36:38;16.60;;;9.70;;
67500;SDS011;54349;52.528;19.760;2022-11-15T09:39:25;14.90;;;9.70;;
67500;SDS011;54349;52.528;19.760;2022-11-15T09:49:03;16.60;;;10.00;;
67500;SDS011;54349;52.528;19.760;2022-11-15T09:51:40;15.70;;;9.70;;
67500;SDS011;54349;52.528;19.760;2022-11-15T09:57:50;16.00;;;9.80;;
67500;SDS011;54349;52.528;19.760;2022-11-15T10:00:34;17.50;;;9.90;;
67500;SDS011;54349;52.528;19.760;2022-11-15T10:03:28;17.80;;;10.90;;
67500;SDS011;54349;52.528;19.760;2022-11-15T10:06:01;15.30;;;9.90;;
67500;SDS011;54349;52.528;19.760;2022-11-15T10:08:48;15.90;;;9.50;;
67500;SDS011;54349;52.528;19.760;2022-11-15T10:11:32;16.30;;;10.00;;
67500;SDS011;54349;52.528;19.760;2022-11-15T10:14:12;16.40;;;10.10;;
67500;SDS011;54349;52.528;19.760;2022-11-15T10:20:25;16.00;;;9.60;;
67500;SDS011;54349;52.528;19.760;2022-11-15T10:23:05;15.40;;;9.40;;
67500;SDS011;54349;52.528;19.760;2022-11-15T10:25:38;15.90;;;9.70;;
67500;SDS011;54349;52.528;19.760;2022-11-15T10:30:58;16.10;;;10.20;;
67500;SDS011;54349;52.528;19.760;2022-11-15T10:33:36;14.70;;;9.60;;
67500;SDS011;54349;52.528;19.760;2022-11-15T10:46:37;15.10;;;9.70;;
67500;SDS011;54349;52.528;19.760;2022-11-15T10:49:21;15.50;;;10.00;;
67500;SDS011;54349;52.528;19.760;2022-11-15T10:54:49;16.10;;;9.90;;
67500;SDS011;54349;52.528;19.760;2022-11-15T10:57:56;14.80;;;9.70;;
67500;SDS011;54349;52.528;19.760;2022-11-15T11:00:36;14.60;;;9.20;;
67500;SDS011;54349;52.528;19.760;2022-11-15T11:03:36;16.40;;;9.90;;
67500;SDS011;54349;52.528;19.760;2022-11-15T11:06:15;15.70;;;9.80;;
67500;SDS011;54349;52.528;19.760;2022-11-15T11:09:05;14.60;;;8.50;;
67500;SDS011;54349;52.528;19.760;2022-11-15T11:11:48;13.60;;;9.00;;
67500;SDS011;54349;52.528;19.760;2022-11-15T11:14:33;14.50;;;9.40;;
67500;SDS011;54349;52.528;19.760;2022-11-15T11:23:24;14.80;;;9.60;;
67500;SDS011;54349;52.528;19.760;2022-11-15T11:32:11;15.60;;;9.60;;
67500;SDS011;54349;52.528;19.760;2022-11-15T11:35:02;13.60;;;8.90;;
67500;SDS011;54349;52.528;19.760;2022-11-15T11:40:59;14.30;;;9.00;;
67500;SDS011;54349;52.528;19.760;2022-11-15T11:43:59;13.60;;;8.80;;
67500;SDS011;54349;52.528;19.760;2022-11-15T11:46:49;15.00;;;9.40;;
67500;SDS011;54349;52.528;19.760;2022-11-15T11:52:34;13.90;;;8.80;;
67500;SDS011;54349;52.528;19.760;2022-11-15T11:55:20;14.30;;;9.00;;
67500;SDS011;54349;52.528;19.760;2022-11-15T12:01:14;14.90;;;9.30;;
67500;SDS011;54349;52.528;19.760;2022-11-15T12:07:04;13.80;;;9.00;;
67500;SDS011;54349;52.528;19.760;2022-11-15T12:09:42;16.00;;;9.80;;
67500;SDS011;54349;52.528;19.760;2022-11-15T12:12:23;13.30;;;9.40;;
67500;SDS011;54349;52.528;19.760;2022-11-15T12:17:39;14.70;;;9.50;;
67500;SDS011;54349;52.528;19.760;2022-11-15T12:20:24;15.00;;;9.60;;
67500;SDS011;54349;52.528;19.760;2022-11-15T12:23:16;16.60;;;9.80;;
67500;SDS011;54349;52.528;19.760;2022-11-15T12:26:08;14.90;;;9.60;;
67500;SDS011;54349;52.528;19.760;2022-11-15T12:29:01;14.80;;;9.30;;
67500;SDS011;54349;52.528;19.760;2022-11-15T12:31:41;16.00;;;10.10;;
67500;SDS011;54349;52.528;19.760;2022-11-15T12:36:49;14.20;;;9.10;;
67500;SDS011;54349;52.528;19.760;2022-11-15T12:39:19;14.10;;;9.40;;
67500;SDS011;54349;52.528;19.760;2022-11-15T12:57:28;17.00;;;10.50;;
67500;SDS011;54349;52.528;19.760;2022-11-15T13:02:45;14.50;;;9.60;;
67500;SDS011;54349;52.528;19.760;2022-11-15T13:18:39;14.80;;;9.10;;
67500;SDS011;54349;52.528;19.760;2022-11-15T13:21:20;15.20;;;9.90;;
67500;SDS011;54349;52.528;19.760;2022-11-15T13:24:12;14.10;;;9.50;;
67500;SDS011;54349;52.528;19.760;2022-11-15T13:26:43;16.00;;;10.00;;
67500;SDS011;54349;52.528;19.760;2022-11-15T13:29:16;15.50;;;9.80;;
67500;SDS011;54349;52.528;19.760;2022-11-15T13:31:47;15.70;;;10.00;;
67500;SDS011;54349;52.528;19.760;2022-11-15T13:34:36;15.30;;;9.30;;
67500;SDS011;54349;52.528;19.760;2022-11-15T13:39:49;15.80;;;10.40;;
67500;SDS011;54349;52.528;19.760;2022-11-15T13:42:20;15.30;;;10.00;;
67500;SDS011;54349;52.528;19.760;2022-11-15T13:45:03;14.90;;;9.70;;
67500;SDS011;54349;52.528;19.760;2022-11-15T13:47:32;15.70;;;10.10;;
67500;SDS011;54349;52.528;19.760;2022-11-15T13:50:00;15.10;;;9.80;;
67500;SDS011;54349;52.528;19.760;2022-11-15T13:52:35;15.90;;;9.80;;
67500;SDS011;54349;52.528;19.760;2022-11-15T13:55:14;16.20;;;9.80;;
67500;SDS011;54349;52.528;19.760;2022-11-15T13:57:48;16.10;;;10.00;;
67500;SDS011;54349;52.528;19.760;2022-11-15T14:00:41;14.90;;;9.40;;
67500;SDS011;54349;52.528;19.760;2022-11-15T14:06:11;18.20;;;10.60;;
67500;SDS011;54349;52.528;19.760;2022-11-15T14:09:45;16.70;;;10.20;;
67500;SDS011;54349;52.528;19.760;2022-11-15T14:11:54;16.80;;;9.80;;
67500;SDS011;54349;52.528;19.760;2022-11-15T14:14:25;16.10;;;9.90;;
67500;SDS011;54349;52.528;19.760;2022-11-15T14:16:59;15.40;;;10.10;;
67500;SDS011;54349;52.528;19.760;2022-11-15T14:22:22;15.80;;;9.80;;
67500;SDS011;54349;52.528;19.760;2022-11-15T14:28:12;16.40;;;10.70;;
67500;SDS011;54349;52.528;19.760;2022-11-15T14:30:53;15.50;;;10.00;;
67500;SDS011;54349;52.528;19.760;2022-11-15T14:33:32;17.70;;;10.60;;
67500;SDS011;54349;52.528;19.760;2022-11-15T14:36:22;16.50;;;9.90;;
67500;SDS011;54349;52.528;19.760;2022-11-15T14:38:51;15.40;;;9.50;;
67500;SDS011;54349;52.528;19.760;2022-11-15T14:43:49;15.90;;;10.10;;
67500;SDS011;54349;52.528;19.760;2022-11-15T14:46:18;15.70;;;9.60;;
67500;SDS011;54349;52.528;19.760;2022-11-15T14:48:47;17.60;;;10.40;;
67500;SDS011;54349;52.528;19.760;2022-11-15T14:51:17;17.10;;;10.50;;
67500;SDS011;54349;52.528;19.760;2022-11-15T14:53:46;17.70;;;10.70;;
67500;SDS011;54349;52.528;19.760;2022-11-15T14:56:16;17.90;;;10.80;;
67500;SDS011;54349;52.528;19.760;2022-11-15T14:58:44;16.30;;;10.40;;
67500;SDS011;54349;52.528;19.760;2022-11-15T15:01:25;16.20;;;10.40;;
67500;SDS011;54349;52.528;19.760;2022-11-15T15:03:54;15.80;;;10.20;;
67500;SDS011;54349;52.528;19.760;2022-11-15T15:06:24;15.20;;;9.80;;
67500;SDS011;54349;52.528;19.760;2022-11-15T15:08:53;19.80;;;10.90;;
67500;SDS011;54349;52.528;19.760;2022-11-15T15:11:24;17.50;;;11.00;;
67500;SDS011;54349;52.528;19.760;2022-11-15T15:13:54;17.40;;;10.90;;
67500;SDS011;54349;52.528;19.760;2022-11-15T15:16:24;18.00;;;9.80;;
67500;SDS011;54349;52.528;19.760;2022-11-15T15:18:53;16.70;;;10.10;;
67500;SDS011;54349;52.528;19.760;2022-11-15T15:21:25;19.50;;;10.40;;
67500;SDS011;54349;52.528;19.760;2022-11-15T15:24:02;20.60;;;11.10;;
67500;SDS011;54349;52.528;19.760;2022-11-15T15:26:31;17.60;;;10.70;;
67500;SDS011;54349;52.528;19.760;2022-11-15T15:29:04;18.50;;;10.90;;
67500;SDS011;54349;52.528;19.760;2022-11-15T15:31:32;16.80;;;10.50;;
67500;SDS011;54349;52.528;19.760;2022-11-15T15:34:01;17.00;;;10.40;;
67500;SDS011;54349;52.528;19.760;2022-11-15T15:36:30;19.40;;;11.00;;
67500;SDS011;54349;52.528;19.760;2022-11-15T15:38:59;19.00;;;11.70;;
67500;SDS011;54349;52.528;19.760;2022-11-15T15:41:28;20.10;;;11.70;;
67500;SDS011;54349;52.528;19.760;2022-11-15T15:43:56;18.60;;;10.70;;
67500;SDS011;54349;52.528;19.760;2022-11-15T15:46:25;19.70;;;10.90;;
67500;SDS011;54349;52.528;19.760;2022-11-15T15:48:53;16.80;;;10.90;;
67500;SDS011;54349;52.528;19.760;2022-11-15T15:51:22;19.50;;;10.70;;
67500;SDS011;54349;52.528;19.760;2022-11-15T15:53:50;16.60;;;10.30;;
67500;SDS011;54349;52.528;19.760;2022-11-15T15:56:21;18.60;;;10.90;;
67500;SDS011;54349;52.528;19.760;2022-11-15T15:58:50;17.10;;;10.40;;
67500;SDS011;54349;52.528;19.760;2022-11-15T16:01:20;17.90;;;10.80;;
67500;SDS011;54349;52.528;19.760;2022-11-15T16:03:48;16.80;;;10.40;;
67500;SDS011;54349;52.528;19.760;2022-11-15T16:06:33;15.50;;;9.70;;
67500;SDS011;54349;52.528;19.760;2022-11-15T16:09:04;17.10;;;10.90;;
67500;SDS011;54349;52.528;19.760;2022-11-15T16:11:46;15.00;;;9.80;;
67500;SDS011;54349;52.528;19.760;2022-11-15T16:14:14;18.50;;;10.30;;
67500;SDS011;54349;52.528;19.760;2022-11-15T16:16:42;18.90;;;11.10;;
67500;SDS011;54349;52.528;19.760;2022-11-15T16:19:11;17.80;;;10.70;;
67500;SDS011;54349;52.528;19.760;2022-11-15T16:21:40;18.80;;;10.70;;
67500;SDS011;54349;52.528;19.760;2022-11-15T16:24:08;16.90;;;10.40;;
67500;SDS011;54349;52.528;19.760;2022-11-15T16:26:37;19.00;;;11.10;;
67500;SDS011;54349;52.528;19.760;2022-11-15T16:29:05;17.70;;;10.50;;
67500;SDS011;54349;52.528;19.760;2022-11-15T16:31:35;17.40;;;10.60;;
67500;SDS011;54349;52.528;19.760;2022-11-15T16:34:03;18.60;;;10.70;;
67500;SDS011;54349;52.528;19.760;2022-11-15T16:36:33;17.30;;;10.00;;
67500;SDS011;54349;52.528;19.760;2022-11-15T16:39:02;19.30;;;11.10;;
67500;SDS011;54349;52.528;19.760;2022-11-15T16:41:31;18.80;;;11.30;;
67500;SDS011;54349;52.528;19.760;2022-11-15T16:44:00;18.70;;;10.80;;
67500;SDS011;54349;52.528;19.760;2022-11-15T16:46:29;19.60;;;10.50;;
67500;SDS011;54349;52.528;19.760;2022-11-15T16:48:57;18.20;;;10.70;;
67500;SDS011;54349;52.528;19.760;2022-11-15T16:51:25;17.60;;;10.90;;
67500;SDS011;54349;52.528;19.760;2022-11-15T16:53:54;17.10;;;10.90;;
67500;SDS011;54349;52.528;19.760;2022-11-15T16:56:28;18.00;;;10.90;;
67500;SDS011;54349;52.528;19.760;2022-11-15T16:58:59;19.90;;;11.40;;
67500;SDS011;54349;52.528;19.760;2022-11-15T17:01:32;20.60;;;11.40;;
67500;SDS011;54349;52.528;19.760;2022-11-15T17:04:02;17.20;;;10.70;;
67500;SDS011;54349;52.528;19.760;2022-11-15T17:06:41;17.90;;;10.70;;
67500;SDS011;54349;52.528;19.760;2022-11-15T17:09:19;16.80;;;10.40;;
67500;SDS011;54349;52.528;19.760;2022-11-15T17:11:51;18.00;;;10.70;;
67500;SDS011;54349;52.528;19.760;2022-11-15T17:14:20;17.70;;;11.00;;
67500;SDS011;54349;52.528;19.760;2022-11-15T17:16:48;18.40;;;11.10;;
67500;SDS011;54349;52.528;19.760;2022-11-15T17:19:18;19.10;;;10.80;;
67500;SDS011;54349;52.528;19.760;2022-11-15T17:21:47;18.60;;;11.20;;
67500;SDS011;54349;52.528;19.760;2022-11-15T17:24:16;18.50;;;10.80;;
67500;SDS011;54349;52.528;19.760;2022-11-15T17:26:47;19.40;;;10.70;;
67500;SDS011;54349;52.528;19.760;2022-11-15T17:29:16;18.90;;;10.40;;
67500;SDS011;54349;52.528;19.760;2022-11-15T17:31:45;20.00;;;11.10;;
67500;SDS011;54349;52.528;19.760;2022-11-15T17:34:14;16.90;;;9.90;;
67500;SDS011;54349;52.528;19.760;2022-11-15T17:36:42;15.40;;;10.10;;
67500;SDS011;54349;52.528;19.760;2022-11-15T17:39:10;16.20;;;9.90;;
67500;SDS011;54349;52.528;19.760;2022-11-15T17:41:38;18.50;;;10.50;;
67500;SDS011;54349;52.528;19.760;2022-11-15T17:44:06;17.80;;;10.40;;
67500;SDS011;54349;52.528;19.760;2022-11-15T17:46:35;18.80;;;10.80;;
67500;SDS011;54349;52.528;19.760;2022-11-15T17:49:04;17.00;;;10.60;;
67500;SDS011;54349;52.528;19.760;2022-11-15T17:51:32;17.60;;;10.60;;
67500;SDS011;54349;52.528;19.760;2022-11-15T17:54:00;18.60;;;10.90;;